Loïc Lerenard

Loïc Lerenard

Statistiques 2019

  • Nb de partants : 132
  • Nb de victoires : 10
  • Nb de places : 26
  • Écart gagnant : 59
  • Réussite à la gagne : 8%
  • Réussite à la place : 20%
Musique : 4m Dm Da Da 0a Da 8a Da 5a 4a Da Da 9a Dm 6m Da 2a Da
ChevalDernière courseCoursesVictoiresR. à la gagnePlacésR. à la place
Bella Cruz 15/04/19 56 6 11% 16 29%
Caid de Chanlecy 15/04/19 29 8 28% 9 31%
Eternal Wood 15/04/19 38 1 3% 5 13%
Bonviva 14/04/19 66 6 9% 17 26%
Dis Moi Oui 14/04/19 25 2 8% 5 20%
Felicia de Forges 14/04/19 0 0 - 0 -
Guinness du Vallon 12/04/19 4 0 - 1 25%
Galaxie du Loisir 12/04/19 2 1 50% 1 50%
Guepard Griff 12/04/19 2 0 - 0 -
Goliath du Caux 12/04/19 6 0 - 0 -
Gaspard des Loups 12/04/19 3 0 - 0 -
Grimm 12/04/19 2 0 - 0 -
Feria Fratelli 12/04/19 15 1 7% 3 20%
Extravaganza 12/04/19 20 1 5% 3 15%
Espoir Creusois 12/04/19 27 1 4% 3 11%
Elite Speed 12/04/19 23 2 9% 7 30%
Eclat des Noix 10/04/19 29 5 17% 11 38%
Fangio des Iris 10/04/19 10 2 20% 5 50%
Arenga de Neret 10/04/19 87 7 8% 23 26%
Etna Pole 08/04/19 30 1 3% 7 23%
Come On du Vallon 07/04/19 44 9 20% 14 32%
Fortuna de Coudde 07/04/19 3 0 - 0 -
Fifa de Chenou 06/04/19 0 0 - 0 -
Gaby de Gouye 05/04/19 1 0 - 0 -
Dgin du Caux 05/04/19 41 3 7% 10 24%
Canto de Bertrange 05/04/19 40 2 5% 11 28%
Coyote du Caux 05/04/19 32 3 9% 9 28%
Esperanza de Venzo 28/03/19 28 1 4% 3 11%
Ecu du Chassin 28/03/19 11 1 9% 3 27%
Flamenco Dream 25/03/19 0 0 - 0 -
Flying Wonder 24/03/19 12 1 8% 4 33%
Emilie des Iris 17/03/19 12 1 8% 5 42%
Day To Day 14/03/19 39 4 10% 11 28%
Cadence d'Urzy 14/03/19 61 2 3% 11 18%
Desir de Banome 13/03/19 26 3 12% 5 19%
Etincelle du Caux 25/02/19 19 1 5% 4 21%
Felin du Loisir 21/02/19 11 1 9% 3 27%
Esperanza Volsin 31/01/19 32 3 9% 6 19%
Eva de Clerlande 31/01/19 25 2 8% 5 20%
Blumberg Delo 26/01/19 62 8 13% 16 26%
Ambiance du Loisir 22/01/19 66 9 14% 19 29%
Fleche d'Ete 21/01/19 3 0 - 0 -
Eureka de Chenou 14/01/19 22 4 18% 5 23%
Danyrose 04/01/19 29 0 - 4 14%
Danae de Coude 18/11/18 22 2 9% 5 23%
Eleve d'Urzy 21/10/18 7 1 14% 1 14%
Earthquake Bellay 14/10/18 16 1 6% 2 13%
Camilla Robsons 30/09/18 29 5 17% 12 41%
Baccarat Griff 23/09/18 47 2 4% 8 17%
Urifan de Couddes 20/09/18 80 8 10% 26 33%